To NAV CANADA Home Page Login to a new session Search on AWWS site Feedback and Comments Disclaimer Vers la page française équivalente Tips FAQ What's new on the site To the Forecasts and Observations / NOTAM section To "File a Flight Plan" website Publications and other links Update of the User's profile FIC Telephone Numbers My Weather Data Folder Route Weather Data Regional Weather Data Local Weather Data To the Forecasts and Observations / NOTAM section
Request Generated 03/28/2017 at 02:23:35 UTC . Weather information available at that time is displayed.

METAR/TAF

PRINCE ALBERT (GLASS FIELD)/SK    

METAR CYPA 280200Z 13007KT 15SM FEW060 BKN150 OVC220 01/M03 A3009 RMK
SC1AS5CS3 SC TR SLP218=
METAR CYPA 280100Z 12007KT 15SM SCT170 OVC240 01/M04 A3007 RMK AS3CS5
SLP213=
METAR CYPA 280000Z 13010KT 15SM FEW170 OVC230 03/M04 A3008 RMK AS1CS7
SLP213=

TAF CYPA 280038Z 2801/2813 09010KT P6SM SCT012 OVC220 TEMPO 2801/2803
BKN012 OVC220
FM280300 09010KT P6SM SCT008 OVC140 TEMPO 2803/2811 BKN008 OVC140
FM281100 11010KT P6SM OVC012 TEMPO 2811/2813 3SM -SN BR OVC008
RMK NXT FCST BY 280700Z=
Your time UTC time
Weather data provided by Environment Canada and NAV CANADA